Time;durP1;ratioP1;P1;durP2;ratioP2;P2;SDS_P1;SDS_P2;PMS_P1;PMS_P2;Temp;Humidity;BMP_temperature;BMP_pressure;BME280_temperature;BME280_humidity;BME280_pressure;Samples;Min_cycle;Max_cycle;Signal;HPM_P1;HPM_P2
2021/12/18 00:01:02;;;;;;;31.90;12.80;;;;;;;-145.69;100.00;74288.75;5052792;28;20223;-82
2021/12/18 00:03:30;;;;;;;30.27;12.50;;;;;;;-145.69;100.00;74286.75;5052796;28;20207;-82
2021/12/18 00:05:56;;;;;;;33.20;13.17;;;;;;;-145.69;100.00;74284.75;5052639;28;20237;-83
2021/12/18 00:08:23;;;;;;;32.47;12.63;;;;;;;-145.69;100.00;74284.75;5063704;28;20190;-83
2021/12/18 00:10:52;;;;;;;32.43;12.17;;;;;;;-145.69;100.00;74278.78;5072700;28;20212;-82
2021/12/18 00:13:18;;;;;;;29.50;12.57;;;;;;;-145.69;100.00;74276.78;5072728;28;20199;-83
2021/12/18 00:15:47;;;;;;;31.73;12.83;;;;;;;-145.69;100.00;74268.81;5072627;28;20199;-83
2021/12/18 00:18:14;;;;;;;28.90;11.10;;;;;;;-145.69;100.00;74260.84;5072653;28;20199;-83
2021/12/18 00:20:42;;;;;;;32.47;12.63;;;;;;;-145.69;100.00;74276.78;5072483;28;20650;-83
2021/12/18 00:23:11;;;;;;;28.67;10.67;;;;;;;-145.69;100.00;74274.78;5075677;28;20308;-84
2021/12/18 00:25:38;;;;;;;30.03;12.30;;;;;;;-145.69;100.00;74278.78;5076311;28;20229;-83
2021/12/18 00:28:05;;;;;;;26.87;11.23;;;;;;;-145.69;100.00;74270.81;5076200;28;20657;-82
2021/12/18 00:30:33;;;;;;;28.97;11.40;;;;;;;-145.69;100.00;74266.84;5076416;28;20248;-83
2021/12/18 00:33:01;;;;;;;30.80;12.40;;;;;;;-145.69;100.00;74260.84;5076404;28;20581;-83
2021/12/18 00:35:29;;;;;;;36.00;13.73;;;;;;;-145.69;100.00;74254.88;5075816;28;20230;-83
2021/12/18 00:37:57;;;;;;;33.00;13.30;;;;;;;-145.69;100.00;74250.91;5076197;28;20253;-83
2021/12/18 00:40:26;;;;;;;27.37;11.20;;;;;;;-145.69;100.00;74260.84;5076343;28;20202;-82
2021/12/18 00:43:00;;;;;;;27.33;12.30;;;;;;;-145.69;100.00;74264.84;5076083;28;20214;-82
2021/12/18 00:45:28;;;;;;;29.63;12.27;;;;;;;-145.69;100.00;74272.81;5076170;28;20279;-82
2021/12/18 00:47:55;;;;;;;30.63;13.40;;;;;;;-145.69;100.00;74286.75;5075991;28;20290;-82
2021/12/18 00:50:24;;;;;;;34.43;14.10;;;;;;;-145.69;100.00;74296.69;5075933;28;20272;-81
2021/12/18 00:52:51;;;;;;;32.57;13.27;;;;;;;-145.69;100.00;74320.59;5075893;28;20199;-82
2021/12/18 00:55:23;;;;;;;34.37;13.60;;;;;;;-145.69;100.00;74324.59;5075581;28;20242;-82
2021/12/18 00:57:53;;;;;;;31.50;12.90;;;;;;;-145.69;100.00;74338.53;5075847;28;20199;-82
2021/12/18 01:00:24;;;;;;;38.40;14.60;;;;;;;-145.69;100.00;74350.47;5075866;28;20289;-82
2021/12/18 01:02:53;;;;;;;31.53;12.53;;;;;;;-145.69;100.00;74372.38;5075860;28;20206;-81
2021/12/18 01:05:20;;;;;;;33.60;12.87;;;;;;;-145.69;100.00;74380.34;5075963;28;20305;-81
2021/12/18 01:07:46;;;;;;;29.37;13.13;;;;;;;-145.69;100.00;74400.25;5075685;28;20560;-81
2021/12/18 01:10:34;;;;;;;35.53;14.17;;;;;;;-145.69;100.00;74430.13;5075579;28;20205;-81
2021/12/18 01:13:08;;;;;;;32.17;12.83;;;;;;;-145.69;100.00;74432.13;5075676;28;20657;-81
2021/12/18 01:15:39;;;;;;;33.43;12.37;;;;;;;-145.69;100.00;74456.00;5062882;28;20234;-80
2021/12/18 01:23:34;;;;;;;30.70;12.30;;;;;;;-145.69;100.00;74487.88;5055386;28;20198;-81
2021/12/18 01:26:03;;;;;;;41.80;14.60;;;;;;;-145.69;100.00;74491.84;5055172;28;20210;-81
2021/12/18 01:28:32;;;;;;;34.70;13.37;;;;;;;-145.69;100.00;74499.81;5055514;28;20234;-81
2021/12/18 01:30:58;;;;;;;34.57;13.27;;;;;;;-145.69;100.00;74507.78;5055157;28;20713;-81
2021/12/18 01:33:25;;;;;;;35.53;13.63;;;;;;;-145.69;100.00;74523.72;5055117;28;20253;-81
2021/12/18 01:35:52;;;;;;;38.30;13.73;;;;;;;-145.69;100.00;74523.72;5055424;28;20690;-81
2021/12/18 01:38:21;;;;;;;40.27;14.07;;;;;;;-145.69;100.00;74535.66;5055060;28;20207;-80
2021/12/18 01:40:48;;;;;;;41.77;14.20;;;;;;;-145.69;100.00;74545.63;5055067;28;20257;-81
2021/12/18 01:46:30;;;;;;;47.97;15.73;;;;;;;-145.69;100.00;74547.63;5054972;28;20241;-81
2021/12/18 01:52:01;;;;;;;41.70;13.77;;;;;;;-145.69;100.00;74579.47;5054739;28;20199;-81
2021/12/18 01:54:28;;;;;;;39.77;13.73;;;;;;;-145.69;100.00;74571.50;5054555;28;20265;-80
2021/12/18 01:56:55;;;;;;;35.23;13.23;;;;;;;-145.69;100.00;74569.53;5054648;28;20658;-81
2021/12/18 01:59:38;;;;;;;43.80;14.00;;;;;;;-145.69;100.00;74575.50;5054612;28;20589;-80
2021/12/18 02:02:08;;;;;;;43.07;13.27;;;;;;;-145.69;100.00;74581.47;5054476;28;20290;-80
2021/12/18 02:04:35;;;;;;;37.47;12.80;;;;;;;-145.69;100.00;74595.41;5054643;28;20195;-80
2021/12/18 02:07:02;;;;;;;38.60;13.57;;;;;;;-145.69;100.00;74607.34;5054596;28;20608;-80
2021/12/18 02:09:44;;;;;;;48.63;14.73;;;;;;;-145.69;100.00;74561.56;5054404;28;20245;-80
2021/12/18 02:12:11;;;;;;;43.90;13.43;;;;;;;-145.69;100.00;74587.44;5054619;28;20203;-81
2021/12/18 02:20:23;;;;;;;40.33;13.63;;;;;;;-145.69;100.00;74623.28;5036644;28;20196;-81
2021/12/18 02:22:49;;;;;;;41.27;13.00;;;;;;;-145.69;100.00;74629.25;5054338;28;20200;-81
2021/12/18 02:25:16;;;;;;;37.60;12.63;;;;;;;-145.69;100.00;74625.28;5054215;28;20257;-80
2021/12/18 02:27:43;;;;;;;42.90;13.40;;;;;;;-145.69;100.00;74601.38;5054170;28;20210;-80
2021/12/18 02:30:11;;;;;;;41.37;13.17;;;;;;;-145.69;100.00;74607.34;5054154;28;20202;-80
2021/12/18 02:32:37;;;;;;;54.37;13.93;;;;;;;-145.69;100.00;74589.44;5053940;28;20206;-81
2021/12/18 02:35:09;;;;;;;35.63;13.50;;;;;;;-145.69;100.00;74605.38;5053779;28;20698;-81
2021/12/18 02:37:40;;;;;;;43.47;13.57;;;;;;;-145.69;100.00;74621.31;5054131;28;20203;-80
2021/12/18 02:42:53;;;;;;;32.27;11.30;;;;;;;-145.69;100.00;74643.19;5053844;28;20285;-80
2021/12/18 02:45:21;;;;;;;36.73;12.67;;;;;;;-145.69;100.00;74647.19;5053031;28;20558;-80
2021/12/18 02:47:53;;;;;;;41.30;13.37;;;;;;;-145.69;100.00;74631.25;5053786;28;20303;-80
2021/12/18 02:50:22;;;;;;;44.40;13.43;;;;;;;-145.69;100.00;74619.31;5054053;28;20227;-80
2021/12/18 02:52:52;;;;;;;45.23;13.33;;;;;;;-145.69;100.00;74619.31;5053631;28;20203;-80
2021/12/18 02:55:18;;;;;;;37.63;13.37;;;;;;;-145.69;100.00;74641.22;5053506;28;20625;-80
2021/12/18 02:57:47;;;;;;;43.47;13.43;;;;;;;-145.69;100.00;74649.19;5053565;28;20199;-80
2021/12/18 03:00:15;;;;;;;43.60;13.13;;;;;;;-145.69;100.00;74659.13;5053661;28;20651;-80
2021/12/18 03:02:45;;;;;;;38.83;12.97;;;;;;;-145.69;100.00;74661.13;5053748;28;20222;-80
2021/12/18 03:05:19;;;;;;;37.53;12.53;;;;;;;-145.69;100.00;74651.16;5053708;28;20200;-80
2021/12/18 03:08:01;;;;;;;44.63;14.63;;;;;;;-145.69;100.00;74623.28;5059470;28;20296;-80
2021/12/18 03:24:31;;;;;;;50.77;14.30;;;;;;;-145.69;100.00;74625.28;5085636;27;20588;-79
2021/12/18 03:27:00;;;;;;;47.87;13.70;;;;;;;-145.69;100.00;74615.31;5070269;28;20206;-79
2021/12/18 03:29:29;;;;;;;57.07;15.10;;;;;;;-145.69;100.00;74615.31;5070453;28;20226;-79
2021/12/18 03:31:55;;;;;;;57.20;15.13;;;;;;;-145.69;100.00;74583.47;5070325;28;20218;-79
2021/12/18 03:34:24;;;;;;;52.50;14.60;;;;;;;-145.69;100.00;74571.50;5070220;28;20203;-79
2021/12/18 03:36:51;;;;;;;51.73;14.23;;;;;;;-145.69;100.00;74571.50;5070181;28;20207;-79
2021/12/18 03:39:26;;;;;;;55.20;15.40;;;;;;;-145.69;100.00;74567.53;5070161;28;20195;-78
2021/12/18 03:41:56;;;;;;;56.93;15.90;;;;;;;-145.69;100.00;74575.50;5069952;28;20668;-79
2021/12/18 03:44:23;;;;;;;61.80;16.23;;;;;;;-145.69;100.00;74565.53;5070081;28;20203;-78
2021/12/18 03:46:55;;;;;;;57.27;16.30;;;;;;;-145.69;100.00;74533.69;5070141;28;20241;-79
2021/12/18 03:49:23;;;;;;;48.47;14.40;;;;;;;-145.69;100.00;74513.75;5069962;28;20245;-79
2021/12/18 03:51:50;;;;;;;54.60;15.13;;;;;;;-145.69;100.00;74507.78;5069804;28;20199;-79
2021/12/18 03:54:17;;;;;;;55.90;15.23;;;;;;;-145.69;100.00;74503.81;5069807;28;20214;-79
2021/12/18 03:56:57;;;;;;;56.13;15.37;;;;;;;-145.69;100.00;74493.84;5069675;28;20596;-79
2021/12/18 03:59:26;;;;;;;53.17;14.63;;;;;;;-145.69;100.00;74487.88;5069897;28;20234;-79
2021/12/18 04:01:52;;;;;;;50.07;14.70;;;;;;;-145.69;100.00;74487.88;5069703;28;20203;-79
2021/12/18 04:04:19;;;;;;;43.87;13.00;;;;;;;-145.69;100.00;74477.91;5069458;28;20230;-78
2021/12/18 04:06:46;;;;;;;43.67;12.20;;;;;;;-145.69;100.00;74485.88;5069483;28;20734;-78
2021/12/18 04:09:15;;;;;;;35.13;12.20;;;;;;;-145.69;100.00;74483.88;5069603;28;20527;-79
2021/12/18 04:11:46;;;;;;;40.60;12.30;;;;;;;-145.69;100.00;74487.88;5069439;28;20221;-79
2021/12/18 04:14:13;;;;;;;38.47;11.93;;;;;;;-145.69;100.00;74481.91;5069335;28;20205;-79
2021/12/18 04:16:46;;;;;;;40.33;13.43;;;;;;;-145.69;100.00;74475.94;5069277;28;20253;-80
2021/12/18 04:19:12;;;;;;;44.73;14.40;;;;;;;-145.69;100.00;74461.97;5069584;28;20199;-79
2021/12/18 04:21:39;;;;;;;58.87;15.50;;;;;;;-145.69;100.00;74452.03;5069223;28;20195;-79
2021/12/18 04:24:11;;;;;;;52.47;15.20;;;;;;;-145.69;100.00;74450.03;5068967;28;20234;-80
2021/12/18 04:26:37;;;;;;;103.13;18.57;;;;;;;-145.69;100.00;74442.06;5069187;28;20203;-79
2021/12/18 04:29:06;;;;;;;78.67;18.17;;;;;;;-145.69;100.00;74440.09;5068838;28;20677;-78
2021/12/18 04:31:36;;;;;;;62.43;15.37;;;;;;;-145.69;100.00;74448.03;5068975;28;20253;-80
2021/12/18 04:34:04;;;;;;;59.70;15.43;;;;;;;-145.69;100.00;74448.03;5064315;28;20211;-80
2021/12/18 04:36:31;;;;;;;56.43;14.83;;;;;;;-145.69;100.00;74458.00;5055898;28;20222;-79
2021/12/18 04:38:58;;;;;;;41.07;12.77;;;;;;;-145.69;100.00;74471.94;5055709;28;20207;-79
2021/12/18 04:41:37;;;;;;;54.97;14.90;;;;;;;-145.69;100.00;74483.88;5055607;28;20207;-79
2021/12/18 04:44:06;;;;;;;89.17;16.27;;;;;;;-145.69;100.00;74493.84;5055516;28;20227;-79
2021/12/18 04:46:33;;;;;;;60.40;14.27;;;;;;;-145.69;100.00;74503.81;5054098;28;20207;-79
2021/12/18 04:49:00;;;;;;;46.80;13.63;;;;;;;-145.69;100.00;74503.81;5045951;28;20601;-78
2021/12/18 04:51:26;;;;;;;53.23;14.93;;;;;;;-145.69;100.00;74515.75;5055385;28;20207;-78
2021/12/18 04:53:56;;;;;;;43.57;13.60;;;;;;;-145.69;100.00;74527.69;5055505;28;20208;-78
2021/12/18 04:56:24;;;;;;;44.37;14.50;;;;;;;-145.69;100.00;74547.63;5054631;28;20658;-78
2021/12/18 04:58:50;;;;;;;56.43;15.40;;;;;;;-145.69;100.00;74559.56;5055380;28;20283;-79
2021/12/18 05:01:24;;;;;;;49.20;14.70;;;;;;;-145.69;100.00;74557.56;5055399;28;20203;-78
2021/12/18 05:03:53;;;;;;;61.83;15.60;;;;;;;-145.69;100.00;74563.53;5055226;28;20227;-79
2021/12/18 05:06:20;;;;;;;71.33;15.60;;;;;;;-145.69;100.00;74567.53;5055144;28;20215;-79
2021/12/18 05:08:46;;;;;;;50.50;15.50;;;;;;;-145.69;100.00;74569.53;5054762;28;20195;-79
2021/12/18 05:11:13;;;;;;;65.63;15.97;;;;;;;-145.69;100.00;74555.59;5055247;28;20202;-78
2021/12/18 05:13:42;;;;;;;82.27;17.23;;;;;;;-145.69;100.00;74555.59;5055197;28;20586;-79
2021/12/18 05:16:10;;;;;;;50.13;14.33;;;;;;;-145.69;100.00;74573.50;5054883;28;20642;-79
2021/12/18 05:18:40;;;;;;;45.57;13.27;;;;;;;-145.69;100.00;74595.41;5055030;28;20204;-79
2021/12/18 05:21:12;;;;;;;39.97;12.60;;;;;;;-145.69;100.00;74619.31;5054924;28;20210;-79
2021/12/18 05:23:48;;;;;;;43.77;12.50;;;;;;;-145.69;100.00;74635.25;5054520;28;20254;-79
2021/12/18 05:26:15;;;;;;;31.07;11.00;;;;;;;-145.69;100.00;74641.22;5054978;28;20199;-79
2021/12/18 05:28:44;;;;;;;39.93;10.77;;;;;;;-145.69;100.00;74647.19;5054808;28;20204;-80
2021/12/18 05:31:16;;;;;;;43.93;12.03;;;;;;;-145.69;100.00;74619.31;5054810;28;20207;-79
2021/12/18 05:33:52;;;;;;;44.83;13.37;;;;;;;-145.69;100.00;74615.31;5054587;28;20207;-79
2021/12/18 05:36:35;;;;;;;44.23;13.33;;;;;;;-145.69;100.00;74621.31;5054565;28;20203;-79
2021/12/18 05:39:04;;;;;;;46.73;12.47;;;;;;;-145.69;100.00;74647.19;5054822;28;20617;-79
2021/12/18 05:41:33;;;;;;;41.67;11.87;;;;;;;-145.69;100.00;74667.09;5054483;28;20248;-79
2021/12/18 05:44:01;;;;;;;42.53;12.43;;;;;;;-145.69;100.00;74659.13;5054250;28;20277;-79
2021/12/18 05:46:27;;;;;;;39.50;11.70;;;;;;;-145.69;100.00;74671.09;5053227;28;20558;-78
2021/12/18 05:48:55;;;;;;;36.73;11.53;;;;;;;-145.69;100.00;74681.03;5054386;28;20253;-79
2021/12/18 05:51:22;;;;;;;42.03;11.87;;;;;;;-145.69;100.00;74663.13;5054338;28;20265;-79
2021/12/18 05:53:48;;;;;;;42.60;12.10;;;;;;;-145.69;100.00;74677.06;5054200;28;20214;-79
2021/12/18 05:56:15;;;;;;;41.23;13.43;;;;;;;-145.69;100.00;74683.03;5054172;28;20206;-78
2021/12/18 05:58:43;;;;;;;43.57;11.93;;;;;;;-145.69;100.00;74679.06;5053963;28;20593;-78
2021/12/18 06:01:18;;;;;;;42.57;12.70;;;;;;;-145.69;100.00;74645.19;5053910;28;20199;-78
2021/12/18 06:03:46;;;;;;;41.80;13.27;;;;;;;-145.69;100.00;74639.22;5053827;28;20805;-78
2021/12/18 06:06:14;;;;;;;47.80;12.77;;;;;;;-145.69;100.00;74639.22;5054086;28;20199;-78
2021/12/18 06:08:42;;;;;;;51.93;13.03;;;;;;;-145.69;100.00;74639.22;5053878;28;20286;-78
2021/12/18 06:11:13;;;;;;;50.50;13.77;;;;;;;-145.69;100.00;74639.22;5053746;28;20203;-78
2021/12/18 06:13:39;;;;;;;50.47;13.53;;;;;;;-145.69;100.00;74643.19;5053963;28;20210;-79
2021/12/18 06:16:06;;;;;;;46.00;12.47;;;;;;;-145.69;100.00;74655.16;5053916;28;20254;-78
2021/12/18 06:18:34;;;;;;;48.17;13.27;;;;;;;-145.69;100.00;74637.22;5053822;28;20195;-79
2021/12/18 06:21:01;;;;;;;56.23;13.00;;;;;;;-145.69;100.00;74615.31;5053520;28;20688;-79
2021/12/18 06:23:29;;;;;;;58.23;14.50;;;;;;;-145.69;100.00;74607.34;5053279;28;20807;-79
2021/12/18 06:25:56;;;;;;;61.70;14.83;;;;;;;-145.69;100.00;74603.38;5053477;28;20199;-79
2021/12/18 06:28:23;;;;;;;66.13;15.30;;;;;;;-145.69;100.00;74595.41;5053815;28;20202;-79
2021/12/18 06:30:50;;;;;;;52.70;12.73;;;;;;;-145.69;100.00;74587.44;5053562;28;20207;-79
2021/12/18 06:33:17;;;;;;;46.43;11.23;;;;;;;-145.69;100.00;74579.47;5053619;28;20253;-80
2021/12/18 06:35:44;;;;;;;58.50;14.07;;;;;;;-145.69;100.00;74567.53;5053503;28;20217;-79
2021/12/18 06:38:10;;;;;;;56.70;14.03;;;;;;;-145.69;100.00;74559.56;5053394;28;20215;-79
2021/12/18 06:40:38;;;;;;;62.03;15.93;;;;;;;-145.69;100.00;74547.63;5053291;28;20203;-78
2021/12/18 06:43:05;;;;;;;51.03;13.67;;;;;;;-145.69;100.00;74533.69;5053436;28;20209;-78
2021/12/18 06:45:31;;;;;;;52.80;13.77;;;;;;;-145.69;100.00;74527.69;5053113;28;20215;-78
2021/12/18 06:47:58;;;;;;;53.57;12.73;;;;;;;-145.69;100.00;74513.75;5053191;28;20203;-78
2021/12/18 06:50:25;;;;;;;45.93;12.47;;;;;;;-145.69;100.00;74509.78;5053143;28;20200;-78
2021/12/18 06:52:51;;;;;;;43.00;12.00;;;;;;;-145.69;100.00;74515.75;5053069;28;20658;-78
2021/12/18 06:55:18;;;;;;;42.97;12.23;;;;;;;-145.69;100.00;74505.78;5053035;28;20207;-79
2021/12/18 06:57:46;;;;;;;47.00;12.40;;;;;;;-145.69;100.00;74515.75;5052650;28;20233;-78
2021/12/18 07:00:14;;;;;;;38.93;11.63;;;;;;;-145.69;100.00;74513.75;5052637;28;20204;-79
2021/12/18 07:02:42;;;;;;;49.13;13.50;;;;;;;-145.69;100.00;74509.78;5053006;28;20199;-79
2021/12/18 07:05:10;;;;;;;53.10;14.17;;;;;;;-145.69;100.00;74507.78;5052877;28;20763;-79
2021/12/18 07:07:37;;;;;;;52.50;14.30;;;;;;;-145.69;100.00;74493.84;5052781;28;20558;-79
2021/12/18 07:10:05;;;;;;;46.33;13.13;;;;;;;-145.69;100.00;74487.88;5053047;28;20290;-79
2021/12/18 07:12:32;;;;;;;51.07;13.30;;;;;;;-145.69;100.00;74471.94;5053049;28;20605;-79
2021/12/18 07:14:59;;;;;;;44.43;12.60;;;;;;;-145.69;100.00;74467.97;5052982;28;20594;-79
2021/12/18 07:17:26;;;;;;;46.53;12.93;;;;;;;-145.69;100.00;74460.00;5052854;28;20199;-78
2021/12/18 07:19:52;;;;;;;39.30;13.03;;;;;;;-145.69;100.00;74460.00;5052798;28;20625;-79
2021/12/18 07:22:19;;;;;;;43.43;12.17;;;;;;;-145.69;100.00;74465.97;5052603;28;20235;-79
2021/12/18 07:24:45;;;;;;;42.77;13.27;;;;;;;-145.69;100.00;74463.97;5052629;28;20227;-80
2021/12/18 07:27:12;;;;;;;76.95;16.88;;;;;;;-145.69;100.00;74452.03;5051897;28;20447;-79
2021/12/18 07:29:38;;;;;;;147.63;17.77;;;;;;;-145.69;100.00;74483.88;5052854;28;20249;-79
2021/12/18 07:32:07;;;;;;;51.97;11.03;;;;;;;-145.69;100.00;74485.88;5052709;28;20199;-79
2021/12/18 07:34:33;;;;;;;136.63;14.97;;;;;;;-145.69;100.00;74491.84;5052637;28;20204;-79
2021/12/18 07:37:00;;;;;;;80.87;12.10;;;;;;;-145.69;100.00;74517.75;5052539;28;20200;-79
2021/12/18 07:39:26;;;;;;;82.50;12.20;;;;;;;-145.69;100.00;74515.75;5052663;28;20570;-79
2021/12/18 07:41:53;;;;;;;42.17;10.47;;;;;;;-145.69;100.00;74499.81;5052805;28;20199;-79
2021/12/18 07:44:20;;;;;;;46.57;10.37;;;;;;;-145.69;100.00;74497.81;5052397;28;20689;-79
2021/12/18 07:46:46;;;;;;;56.67;11.87;;;;;;;-145.69;100.00;74491.84;5052505;28;20659;-79
2021/12/18 07:49:14;;;;;;;76.37;11.23;;;;;;;-145.69;100.00;74493.84;5052491;28;20211;-79
2021/12/18 07:51:41;;;;;;;31.20;9.80;;;;;;;-145.69;100.00;74493.84;5052645;28;20203;-78
2021/12/18 07:54:08;;;;;;;34.90;9.87;;;;;;;-145.69;100.00;74501.81;5052624;28;20199;-79
2021/12/18 07:56:36;;;;;;;37.87;10.43;;;;;;;-145.69;100.00;74481.91;5052553;28;20585;-79
2021/12/18 07:59:06;;;;;;;37.13;9.23;;;;;;;-145.69;100.00;74475.94;5052444;28;20206;-78
2021/12/18 08:01:32;;;;;;;36.07;10.53;;;;;;;-145.69;100.00;74460.00;5052328;28;20574;-78
2021/12/18 08:04:00;;;;;;;36.93;10.10;;;;;;;-145.69;100.00;74450.03;5052583;28;20235;-79
2021/12/18 08:06:31;;;;;;;35.43;9.90;;;;;;;-145.69;100.00;74446.06;5052430;28;20234;-79
2021/12/18 08:08:57;;;;;;;39.43;10.20;;;;;;;-145.69;100.00;74448.03;5052486;28;20670;-80
2021/12/18 08:11:26;;;;;;;42.37;10.57;;;;;;;-145.69;100.00;74432.13;5056059;28;20210;-80
2021/12/18 08:13:52;;;;;;;57.67;10.33;;;;;;;-145.69;100.00;74432.13;5055963;28;20203;-80
2021/12/18 08:16:22;;;;;;;33.90;10.57;;;;;;;-145.69;100.00;74420.16;5055914;28;20219;-80
2021/12/18 08:18:49;;;;;;;42.80;10.10;;;;;;;-145.69;100.00;74420.16;5056210;28;20198;-80
2021/12/18 08:21:15;;;;;;;31.77;9.00;;;;;;;-145.69;100.00;74442.06;5056261;28;20203;-80
2021/12/18 08:23:43;;;;;;;32.73;9.13;;;;;;;-145.69;100.00;74436.09;5055658;28;20235;-80
2021/12/18 08:26:10;;;;;;;45.80;10.43;;;;;;;-145.69;100.00;74430.13;5055843;28;20211;-80
2021/12/18 08:28:36;;;;;;;32.07;8.57;;;;;;;-145.69;100.00;74432.13;5055837;28;20203;-80
2021/12/18 08:31:03;;;;;;;48.50;9.50;;;;;;;-145.69;100.00;74456.00;5055654;28;20212;-80
2021/12/18 08:33:30;;;;;;;80.13;26.27;;;;;;;-145.69;100.00;74438.09;5055899;28;20203;-80
2021/12/18 08:35:56;;;;;;;45.03;11.77;;;;;;;-145.69;100.00;74440.09;5055799;28;20249;-80
2021/12/18 08:38:23;;;;;;;33.07;10.03;;;;;;;-145.69;100.00;74432.13;5055776;28;20209;-80
2021/12/18 08:40:51;;;;;;;44.73;17.10;;;;;;;-145.69;100.00;74412.19;5055619;28;20325;-77
2021/12/18 08:43:17;;;;;;;54.77;13.53;;;;;;;-145.69;100.00;74412.19;5055536;28;20286;-77
2021/12/18 08:45:44;;;;;;;34.70;8.17;;;;;;;-145.69;100.00;74416.19;5055267;28;20231;-77
2021/12/18 08:48:10;;;;;;;27.33;8.83;;;;;;;-145.69;100.00;74384.31;5055549;28;20203;-77
2021/12/18 08:50:37;;;;;;;24.80;7.57;;;;;;;-145.69;100.00;74380.34;5055389;28;20684;-77
2021/12/18 08:53:03;;;;;;;25.10;8.23;;;;;;;-145.69;100.00;74344.50;5055460;28;20202;-78
2021/12/18 08:55:30;;;;;;;24.77;8.13;;;;;;;-145.69;100.00;74338.53;5055313;28;20199;-78
2021/12/18 08:57:58;;;;;;;37.33;8.63;;;;;;;-145.69;100.00;74356.44;5055206;28;20250;-78
2021/12/18 09:00:25;;;;;;;26.43;8.93;;;;;;;-145.69;100.00;74354.44;5055390;28;20210;-77
2021/12/18 09:02:54;;;;;;;48.23;9.13;;;;;;;-145.69;100.00;74384.31;5055124;28;20654;-77
2021/12/18 09:05:21;;;;;;;45.83;8.53;;;;;;;-145.69;100.00;74368.38;5055175;28;20312;-79
2021/12/18 09:07:48;;;;;;;33.93;8.17;;;;;;;-145.69;100.00;74384.31;5055007;28;20199;-76
2021/12/18 09:10:15;;;;;;;22.90;8.03;;;;;;;-145.69;100.00;74364.41;5054500;28;20203;-77
2021/12/18 09:12:42;;;;;;;33.47;8.13;;;;;;;-145.69;100.00;74350.47;5054808;28;20647;-77
2021/12/18 09:15:11;;;;;;;27.63;8.60;;;;;;;-145.69;100.00;74332.53;5054635;28;20202;-79
2021/12/18 09:17:38;;;;;;;28.33;7.93;;;;;;;-145.69;100.00;74314.63;5054870;28;20202;-77
2021/12/18 09:20:06;;;;;;;26.73;7.37;;;;;;;-145.69;100.00;74316.63;5054750;28;20206;-78
2021/12/18 09:22:32;;;;;;;19.13;7.70;;;;;;;-145.69;100.00;74308.66;5054104;28;20697;-77
2021/12/18 09:25:00;;;;;;;17.27;7.07;;;;;;;-145.69;100.00;74324.59;5054404;28;20585;-79
2021/12/18 09:27:26;;;;;;;22.23;6.90;;;;;;;-145.69;100.00;74326.56;5054428;28;20286;-78
2021/12/18 09:29:53;;;;;;;16.77;6.50;;;;;;;-145.69;100.00;74332.53;5054871;28;20203;-77
2021/12/18 09:32:21;;;;;;;16.83;6.97;;;;;;;-145.69;100.00;74330.56;5054642;28;20274;-80
2021/12/18 09:34:47;;;;;;;14.10;5.90;;;;;;;-145.69;100.00;74320.59;5054679;28;20578;-80
2021/12/18 09:37:13;;;;;;;16.47;6.83;;;;;;;-145.69;100.00;74288.75;5054618;28;20658;-81
2021/12/18 09:39:40;;;;;;;33.53;7.00;;;;;;;-145.69;100.00;74322.59;5054692;28;20215;-81
2021/12/18 09:42:07;;;;;;;23.73;7.10;;;;;;;-145.69;100.00;74320.59;5054814;28;20199;-77
2021/12/18 09:44:35;;;;;;;19.27;6.97;;;;;;;-145.69;100.00;74276.78;5054283;28;20223;-82
2021/12/18 09:47:04;;;;;;;17.40;6.90;;;;;;;-145.69;100.00;74284.75;5054445;28;20199;-79
2021/12/18 09:49:33;;;;;;;19.27;7.33;;;;;;;-145.69;100.00;74254.88;5054230;28;20551;-78
2021/12/18 09:52:00;;;;;;;20.93;7.20;;;;;;;-145.69;100.00;74296.69;5054337;28;20650;-78
2021/12/18 09:54:27;;;;;;;16.00;6.73;;;;;;;-145.69;100.00;74260.84;5054151;28;20203;-79
2021/12/18 09:56:54;;;;;;;20.97;5.83;;;;;;;-145.69;100.00;74248.91;5054306;28;20199;-82
2021/12/18 09:59:21;;;;;;;16.50;7.37;;;;;;;-145.69;100.00;74209.09;5054173;28;20261;-84
2021/12/18 10:01:47;;;;;;;18.90;7.03;;;;;;;-145.69;100.00;74185.19;5054114;28;20250;-83
2021/12/18 10:04:26;;;;;;;17.87;6.77;;;;;;;-145.69;100.00;74173.25;5054126;28;20223;-86
2021/12/18 10:06:54;;;;;;;17.73;6.53;;;;;;;-145.69;100.00;74145.38;5053992;28;20310;-81
2021/12/18 10:09:34;;;;;;;16.13;7.43;;;;;;;-145.69;100.00;74125.44;5053929;28;20265;-81
2021/12/18 10:12:03;;;;;;;18.00;7.00;;;;;;;-145.69;100.00;74131.44;5053623;28;20629;-80
2021/12/18 10:14:35;;;;;;;17.70;7.03;;;;;;;-145.69;100.00;74143.38;5054213;28;20199;-81
2021/12/18 10:17:02;;;;;;;14.67;6.90;;;;;;;-145.69;100.00;74127.44;5053558;28;20667;-85
2021/12/18 10:19:30;;;;;;;20.03;6.90;;;;;;;-145.69;100.00;74097.56;5053695;28;20211;-78
2021/12/18 10:22:00;;;;;;;14.60;6.80;;;;;;;-145.69;100.00;74121.47;5053263;28;20195;-85
2021/12/18 10:24:28;;;;;;;12.10;6.00;;;;;;;-145.69;100.00;74143.38;5053657;28;20231;-85
2021/12/18 10:26:55;;;;;;;32.73;7.40;;;;;;;-145.69;100.00;74121.47;5053914;28;20199;-84
2021/12/18 10:29:29;;;;;;;19.07;7.83;;;;;;;-145.69;100.00;74171.25;5053721;28;20203;-83
2021/12/18 10:31:57;;;;;;;21.20;7.57;;;;;;;-145.69;100.00;74225.03;5053327;28;20208;-78
2021/12/18 10:34:25;;;;;;;20.87;6.70;;;;;;;-145.69;100.00;74232.97;5053845;28;20199;-80
2021/12/18 10:37:17;;;;;;;21.17;8.43;;;;;;;-145.69;100.00;74234.97;5053514;28;20203;-78
2021/12/18 10:39:56;;;;;;;27.03;8.70;;;;;;;-145.69;100.00;74193.16;5053483;28;20196;-79
2021/12/18 10:42:26;;;;;;;25.30;8.23;;;;;;;-145.69;100.00;74215.06;5053817;28;20192;-79
2021/12/18 10:45:02;;;;;;;21.70;8.17;;;;;;;-145.69;100.00;74213.06;5053030;28;20281;-79
2021/12/18 10:47:44;;;;;;;18.07;6.97;;;;;;;-145.69;100.00;74121.47;5053495;28;20207;-79
2021/12/18 10:50:17;;;;;;;17.90;7.57;;;;;;;-145.69;100.00;74051.78;5053558;28;20411;-79
2021/12/18 10:52:45;;;;;;;20.67;7.97;;;;;;;-145.69;100.00;74025.91;5053336;28;20582;-78
2021/12/18 10:55:11;;;;;;;21.20;7.73;;;;;;;-145.69;100.00;74061.72;5053383;28;20246;-77
2021/12/18 10:57:38;;;;;;;27.40;8.60;;;;;;;-145.69;100.00;74055.75;5053229;28;20195;-77
2021/12/18 11:00:06;;;;;;;18.63;8.10;;;;;;;-145.69;100.00;74049.78;5053198;28;20672;-77
2021/12/18 11:02:43;;;;;;;34.63;12.33;;;;;;;-145.69;100.00;74049.78;5053193;28;20207;-78
2021/12/18 11:05:16;;;;;;;28.33;9.30;;;;;;;-145.69;100.00;74059.75;5053038;28;20321;-78
2021/12/18 11:07:46;;;;;;;20.63;8.47;;;;;;;-145.69;100.00;74081.66;5052937;28;20597;-79
2021/12/18 11:13:45;;;;;;;18.27;7.63;;;;;;;-145.69;100.00;74013.94;5080629;27;20592;-76
2021/12/18 11:16:12;;;;;;;18.17;8.00;;;;;;;-145.69;100.00;73982.09;5070130;28;20216;-77
2021/12/18 11:18:42;;;;;;;19.13;8.53;;;;;;;-145.69;100.00;73962.19;5070382;28;20256;-76
2021/12/18 11:21:09;;;;;;;41.63;8.97;;;;;;;-145.69;100.00;74002.00;5069819;28;20198;-77
2021/12/18 11:23:40;;;;;;;19.77;8.83;;;;;;;-145.69;100.00;73996.03;5070007;28;20206;-78
2021/12/18 11:26:12;;;;;;;23.97;8.83;;;;;;;-145.69;100.00;73934.31;5070207;28;20234;-77
2021/12/18 11:28:45;;;;;;;21.50;9.07;;;;;;;-145.69;100.00;73928.31;5070174;28;20207;-77
2021/12/18 11:31:13;;;;;;;31.33;9.93;;;;;;;-145.69;100.00;73930.31;5069902;28;20203;-77
2021/12/18 11:33:39;;;;;;;27.87;9.63;;;;;;;-145.69;100.00;73920.38;5069989;28;20609;-78
2021/12/18 11:36:08;;;;;;;36.10;9.83;;;;;;;-145.69;100.00;73952.22;5070051;28;20202;-78
2021/12/18 11:38:37;;;;;;;25.83;9.80;;;;;;;-145.69;100.00;74017.94;5069395;28;20210;-77
2021/12/18 11:41:04;;;;;;;38.93;10.13;;;;;;;-145.69;100.00;74083.63;5069992;28;20194;-77